Time;durP1;ratioP1;P1;durP2;ratioP2;P2;SDS_P1;SDS_P2;PMS_P1;PMS_P2;Temp;Humidity;BMP_temperature;BMP_pressure;BME280_temperature;BME280_humidity;BME280_pressure;Samples;Min_cycle;Max_cycle;Signal;HPM_P1;HPM_P2
2022/06/16 00:06:21;;;;;;;0.20;0.00;;;22.60;99.90;;;;;;21183326;28;20227;-74
2022/06/16 00:16:26;;;;;;;0.20;0.00;;;22.40;99.90;;;;;;21199345;28;20215;-76
2022/06/16 00:26:30;;;;;;;0.20;0.00;;;22.30;99.90;;;;;;21194484;27;20237;-74
2022/06/16 00:36:37;;;;;;;0.20;0.10;;;22.20;99.90;;;;;;21153027;28;20196;-74
2022/06/16 00:46:41;;;;;;;0.20;0.00;;;22.40;99.90;;;;;;21173091;28;20250;-74
2022/06/16 00:56:47;;;;;;;0.20;0.00;;;22.20;99.90;;;;;;21140261;28;20192;-75
2022/06/16 01:06:52;;;;;;;0.20;0.00;;;21.90;99.90;;;;;;21141130;28;20286;-74
2022/06/16 01:17:04;;;;;;;0.20;0.00;;;22.00;99.90;;;;;;21139750;28;20226;-76
2022/06/16 01:27:59;;;;;;;0.20;0.00;;;22.00;99.90;;;;;;21140569;28;20224;-74
2022/06/16 01:38:10;;;;;;;0.20;0.10;;;21.90;99.90;;;;;;21195378;28;20237;-76
2022/06/16 01:48:17;;;;;;;0.20;0.00;;;21.90;99.90;;;;;;21223589;28;20682;-75
2022/06/16 01:58:26;;;;;;;0.20;0.00;;;21.70;99.90;;;;;;21224946;28;20218;-74
2022/06/16 02:08:33;;;;;;;0.20;0.03;;;21.80;99.90;;;;;;21227562;28;20253;-76
2022/06/16 02:18:41;;;;;;;0.20;0.00;;;21.70;99.90;;;;;;21240141;28;20218;-74
2022/06/16 02:28:47;;;;;;;0.20;0.00;;;22.00;99.90;;;;;;21236862;28;20250;-75
2022/06/16 02:39:03;;;;;;;0.20;0.00;;;22.10;99.90;;;;;;21233077;28;20210;-75
2022/06/16 02:49:16;;;;;;;0.20;0.00;;;22.20;99.90;;;;;;21237126;28;20218;-76
2022/06/16 02:59:25;;;;;;;0.20;0.00;;;22.20;99.90;;;;;;21236488;28;20223;-76
2022/06/16 03:09:28;;;;;;;0.20;0.00;;;22.00;99.90;;;;;;21234869;28;20260;-76
2022/06/16 03:19:34;;;;;;;0.20;0.00;;;22.20;99.90;;;;;;21233659;28;20278;-76
2022/06/16 03:29:38;;;;;;;0.20;0.00;;;22.10;99.90;;;;;;21214693;28;20219;-76
2022/06/16 03:39:44;;;;;;;3.23;1.07;;;22.20;99.90;;;;;;21160519;28;20219;-75
2022/06/16 03:49:47;;;;;;;0.20;0.00;;;22.00;99.90;;;;;;21146072;28;20560;-75
2022/06/16 03:59:53;;;;;;;0.20;0.00;;;22.10;99.90;;;;;;21145945;28;20216;-78
2022/06/16 04:09:56;;;;;;;0.20;0.00;;;21.90;99.90;;;;;;21145043;28;20256;-76
2022/06/16 04:20:14;;;;;;;0.20;0.00;;;21.90;99.90;;;;;;21143202;28;20232;-77
2022/06/16 04:30:18;;;;;;;0.20;0.00;;;21.80;99.90;;;;;;21142654;28;20219;-77
2022/06/16 04:40:24;;;;;;;0.20;0.00;;;22.10;99.90;;;;;;21214652;28;20222;-78
2022/06/16 04:50:28;;;;;;;0.20;0.00;;;22.20;99.90;;;;;;21219604;28;20207;-75
2022/06/16 05:00:34;;;;;;;0.20;0.00;;;22.20;99.90;;;;;;21223368;28;20258;-74
2022/06/16 05:10:46;;;;;;;0.20;0.00;;;22.30;99.90;;;;;;21224360;28;20211;-73
2022/06/16 05:20:52;;;;;;;0.20;0.00;;;22.60;99.90;;;;;;21222639;28;20219;-77
2022/06/16 05:30:55;;;;;;;0.20;0.00;;;22.90;99.90;;;;;;21224509;28;21009;-77
2022/06/16 05:41:03;;;;;;;0.20;0.00;;;23.70;99.90;;;;;;21220187;28;20240;-76
2022/06/16 05:51:09;;;;;;;0.20;0.00;;;24.20;99.90;;;;;;21239168;28;20203;-75
2022/06/16 06:01:15;;;;;;;0.20;0.10;;;24.80;99.90;;;;;;21234758;28;20242;-75
2022/06/16 06:22:02;;;;;;;0.20;0.00;;;25.40;99.90;;;;;;21229428;28;20246;-73
2022/06/16 06:32:07;;;;;;;0.20;0.00;;;25.60;99.90;;;;;;21229853;28;20225;-74
2022/06/16 06:42:14;;;;;;;0.20;0.10;;;25.90;99.90;;;;;;21233357;28;20608;-74
2022/06/16 06:52:18;;;;;;;0.20;0.00;;;26.20;99.90;;;;;;21231267;28;20188;-74
2022/06/16 07:02:24;;;;;;;0.20;0.00;;;26.60;99.90;;;;;;21228423;28;20227;-77
2022/06/16 07:12:28;;;;;;;0.20;0.00;;;26.70;99.90;;;;;;21229406;28;20196;-73
2022/06/16 07:22:33;;;;;;;0.20;0.00;;;26.60;99.90;;;;;;21223918;28;20223;-74
2022/06/16 07:32:37;;;;;;;0.20;0.00;;;26.60;99.90;;;;;;21229549;28;20213;-74
2022/06/16 07:42:44;;;;;;;0.20;0.10;;;26.90;99.90;;;;;;21229932;28;20274;-75
2022/06/16 07:52:48;;;;;;;0.20;0.00;;;27.00;99.90;;;;;;21228261;28;20246;-74
2022/06/16 08:02:55;;;;;;;0.20;0.10;;;27.40;99.90;;;;;;21223498;28;20250;-74
2022/06/16 08:12:58;;;;;;;0.20;0.10;;;27.60;99.90;;;;;;21227033;28;20230;-74
2022/06/16 08:23:04;;;;;;;0.20;0.00;;;27.60;99.90;;;;;;21224006;28;20230;-74
2022/06/16 08:33:09;;;;;;;0.20;0.00;;;27.60;99.90;;;;;;21223829;28;20223;-72
2022/06/16 08:43:24;;;;;;;0.20;0.00;;;27.50;99.90;;;;;;21223813;28;20219;-73
2022/06/16 08:54:04;;;;;;;0.20;0.00;;;28.00;99.90;;;;;;21222324;28;20215;-73
2022/06/16 09:04:12;;;;;;;0.20;0.10;;;28.20;99.90;;;;;;21221696;28;20265;-73
2022/06/16 09:25:26;;;;;;;0.25;0.25;;;27.90;99.90;;;;;;21218306;28;20214;-72
2022/06/16 09:35:34;;;;;;;0.20;0.00;;;28.70;99.90;;;;;;21211871;28;20211;-71
2022/06/16 09:45:45;;;;;;;0.20;0.00;;;29.10;99.90;;;;;;21190450;28;20242;-72
2022/06/16 09:55:54;;;;;;;0.20;0.00;;;29.20;99.90;;;;;;21125153;28;20217;-72
2022/06/16 10:06:18;;;;;;;0.20;0.10;;;28.90;99.90;;;;;;21124455;28;20327;-76
2022/06/16 10:16:30;;;;;;;0.20;0.00;;;28.70;99.90;;;;;;21120136;28;20251;-75
2022/06/16 10:26:36;;;;;;;0.20;0.00;;;28.90;99.90;;;;;;21124068;28;20223;-71
2022/06/16 10:36:41;;;;;;;0.20;0.00;;;28.90;99.90;;;;;;21136176;28;20196;-73
2022/06/16 10:46:50;;;;;;;0.20;0.08;;;29.60;99.90;;;;;;21138424;28;20261;-74
2022/06/16 10:57:13;;;;;;;0.20;0.10;;;29.60;99.90;;;;;;21135943;28;20196;-74
2022/06/16 11:07:23;;;;;;;0.20;0.00;;;30.30;99.90;;;;;;21171863;28;20513;-74
2022/06/16 11:17:30;;;;;;;0.20;0.00;;;30.70;99.90;;;;;;21173099;28;20226;-73
2022/06/16 11:27:45;;;;;;;0.20;0.10;;;30.70;99.90;;;;;;21168775;28;20240;-70
2022/06/16 11:37:54;;;;;;;0.95;0.95;;;31.00;99.90;;;;;;21174060;28;20203;-72
2022/06/16 11:48:10;;;;;;;0.20;0.00;;;31.10;99.90;;;;;;21193578;28;20219;-73
2022/06/16 11:58:34;;;;;;;0.20;0.00;;;31.70;99.90;;;;;;21159764;28;20255;-73
2022/06/16 12:08:52;;;;;;;0.20;0.00;;;32.00;99.90;;;;;;21130235;28;20303;-71
2022/06/16 12:19:05;;;;;;;0.20;0.00;;;32.60;99.90;;;;;;21128252;28;20289;-75
2022/06/16 12:29:20;;;;;;;0.20;0.00;;;33.20;99.90;;;;;;21131906;28;20253;-73
2022/06/16 12:39:27;;;;;;;0.20;0.00;;;33.90;99.90;;;;;;21131140;28;20212;-74
2022/06/16 12:49:35;;;;;;;0.20;0.00;;;34.30;99.90;;;;;;21129767;28;20295;-73
2022/06/16 12:59:45;;;;;;;0.20;0.00;;;34.50;99.90;;;;;;21129889;28;20200;-73
2022/06/16 13:09:50;;;;;;;0.20;0.00;;;34.60;99.90;;;;;;21111349;28;20258;-72
2022/06/16 13:19:59;;;;;;;0.20;0.00;;;34.90;99.90;;;;;;21128712;28;20299;-73
2022/06/16 13:30:37;;;;;;;0.20;0.00;;;35.20;99.90;;;;;;21123826;28;20287;-74
2022/06/16 13:40:43;;;;;;;0.20;0.00;;;34.80;99.90;;;;;;21129246;28;20218;-73
2022/06/16 13:50:50;;;;;;;0.20;0.00;;;35.20;99.90;;;;;;21211850;28;20217;-72
2022/06/16 14:01:15;;;;;;;0.20;0.00;;;34.80;99.90;;;;;;21206397;28;20235;-72
2022/06/16 14:11:24;;;;;;;0.20;0.00;;;35.30;99.90;;;;;;21218892;28;20219;-72
2022/06/16 14:21:33;;;;;;;0.20;0.10;;;35.30;99.90;;;;;;21224338;28;20218;-73
2022/06/16 14:31:41;;;;;;;0.20;0.00;;;35.10;99.90;;;;;;21188694;28;20247;-73
2022/06/16 14:41:47;;;;;;;0.20;0.00;;;35.20;99.90;;;;;;21135180;28;20211;-74
2022/06/16 14:51:53;;;;;;;0.20;0.00;;;35.40;99.90;;;;;;21136242;28;20259;-72
2022/06/16 15:01:57;;;;;;;0.20;0.00;;;35.90;99.90;;;;;;21134293;28;20239;-71
2022/06/16 15:12:05;;;;;;;0.20;0.00;;;35.30;99.90;;;;;;21132339;28;20224;-74
2022/06/16 15:22:10;;;;;;;0.20;0.00;;;34.90;99.90;;;;;;21129926;28;20244;-72
2022/06/16 15:42:36;;;;;;;0.20;0.00;;;35.40;99.90;;;;;;21127089;28;20238;-72
2022/06/16 15:52:45;;;;;;;0.20;0.00;;;35.50;99.90;;;;;;21127859;28;20208;-73
2022/06/16 16:02:51;;;;;;;0.20;0.00;;;35.60;99.90;;;;;;21128549;28;20295;-73
2022/06/16 16:13:03;;;;;;;0.20;0.00;;;35.00;99.90;;;;;;21125366;28;20192;-73
2022/06/16 16:23:14;;;;;;;0.20;0.00;;;35.00;99.90;;;;;;21148196;28;20288;-74
2022/06/16 16:33:27;;;;;;;0.20;0.00;;;34.80;99.90;;;;;;21177378;28;20334;-73
2022/06/16 16:43:43;;;;;;;0.20;0.00;;;34.60;99.90;;;;;;21213179;28;20237;-75
2022/06/16 16:53:53;;;;;;;0.20;0.00;;;34.00;99.90;;;;;;21207217;28;20204;-74
2022/06/16 17:03:57;;;;;;;0.20;0.00;;;33.70;99.90;;;;;;21152659;28;20261;-73
2022/06/16 17:14:06;;;;;;;0.20;0.00;;;33.40;99.90;;;;;;21188405;28;20191;-73
2022/06/16 17:24:16;;;;;;;0.20;0.00;;;33.60;99.90;;;;;;21214576;28;20252;-74
2022/06/16 17:34:23;;;;;;;0.20;0.00;;;33.30;99.90;;;;;;21191419;28;20256;-73
2022/06/16 17:44:27;;;;;;;0.20;0.00;;;33.60;99.90;;;;;;21145833;28;20295;-73
2022/06/16 18:04:55;;;;;;;0.20;0.00;;;33.20;99.90;;;;;;21146696;28;20223;-74
2022/06/16 18:15:02;;;;;;;0.20;0.00;;;32.60;99.90;;;;;;21149587;28;20208;-74
2022/06/16 18:25:08;;;;;;;0.20;0.00;;;31.80;99.90;;;;;;21145912;28;20235;-75
2022/06/16 18:35:21;;;;;;;0.20;0.00;;;31.30;99.90;;;;;;21159176;28;20212;-73
2022/06/16 18:45:25;;;;;;;0.20;0.00;;;30.40;99.90;;;;;;21147995;28;20223;-74
2022/06/16 18:55:30;;;;;;;0.20;0.00;;;29.90;99.90;;;;;;21146703;28;20216;-74
2022/06/16 19:05:34;;;;;;;0.20;0.10;;;29.20;99.90;;;;;;21159014;28;20265;-80
2022/06/16 19:15:51;;;;;;;0.20;0.00;;;28.40;99.90;;;;;;21138998;28;20283;-74
2022/06/16 19:25:57;;;;;;;0.20;0.00;;;27.90;99.90;;;;;;21146029;28;20211;-73
2022/06/16 19:36:02;;;;;;;0.20;0.00;;;27.80;99.90;;;;;;21181114;28;20222;-73
2022/06/16 19:56:34;;;;;;;0.20;0.00;;;27.10;99.90;;;;;;21182429;28;20188;-74
2022/06/16 20:06:38;;;;;;;0.20;0.10;;;26.90;99.90;;;;;;21187921;28;20235;-75
2022/06/16 20:16:43;;;;;;;0.20;0.00;;;27.10;99.90;;;;;;21162332;28;20200;-74
2022/06/16 20:26:47;;;;;;;0.20;0.00;;;27.00;99.90;;;;;;21150585;28;20284;-74
2022/06/16 20:36:53;;;;;;;0.20;0.00;;;27.10;99.90;;;;;;21188332;28;20207;-73
2022/06/16 20:46:57;;;;;;;0.20;0.10;;;26.90;99.90;;;;;;21226406;28;20243;-73
2022/06/16 21:01:53;;;;;;;0.20;0.10;;;27.30;99.90;;;;;;21209235;28;20211;-72
2022/06/16 21:07:27;;;;;;;0.20;0.00;;;27.50;99.90;;;;;;21222775;28;20249;-73
2022/06/16 21:17:32;;;;;;;0.20;0.00;;;26.90;99.90;;;;;;21223824;28;20215;-73
2022/06/16 21:27:37;;;;;;;0.20;0.00;;;26.90;99.90;;;;;;21225369;27;20282;-75
2022/06/16 21:37:42;;;;;;;0.20;0.00;;;26.20;99.90;;;;;;21220165;28;20183;-73
2022/06/16 21:47:49;;;;;;;0.20;0.00;;;26.90;99.90;;;;;;21221928;28;20216;-76
2022/06/16 21:57:54;;;;;;;0.20;0.03;;;26.50;99.90;;;;;;21191079;28;20561;-74
2022/06/16 22:08:00;;;;;;;0.20;0.00;;;26.80;99.90;;;;;;21176120;28;20288;-75
2022/06/16 22:18:11;;;;;;;0.20;0.00;;;26.60;99.90;;;;;;21177338;28;20238;-76
2022/06/16 22:28:18;;;;;;;0.20;0.00;;;26.60;99.90;;;;;;21183116;28;20283;-74
2022/06/16 22:38:26;;;;;;;0.20;0.00;;;26.40;99.90;;;;;;21152335;28;20208;-75
2022/06/16 22:48:32;;;;;;;0.20;0.00;;;26.30;99.90;;;;;;21152828;28;20297;-73
2022/06/16 22:58:38;;;;;;;0.20;0.00;;;26.40;99.90;;;;;;21151223;28;20192;-73
2022/06/16 23:08:45;;;;;;;0.20;0.00;;;26.20;99.90;;;;;;21151026;28;20231;-73
2022/06/16 23:18:50;;;;;;;0.20;0.00;;;26.30;99.90;;;;;;21150127;28;20228;-73
2022/06/16 23:28:56;;;;;;;0.20;0.03;;;25.90;99.90;;;;;;21147591;28;20283;-73
2022/06/16 23:39:01;;;;;;;0.20;0.00;;;26.20;99.90;;;;;;21210022;28;20211;-73
2022/06/16 23:49:09;;;;;;;0.20;0.00;;;26.30;99.90;;;;;;21230520;28;20245;-73
2022/06/16 23:59:15;;;;;;;0.20;0.00;;;26.20;99.90;;;;;;21230300;28;20214;-73
